createdAt,value
2023-01-06T00:00:47.757Z,99052.22
2023-01-06T00:01:49.012Z,99045.56
2023-01-06T00:02:50.779Z,99051.06
2023-01-06T00:03:55.971Z,99048.44
2023-01-06T00:05:00.067Z,99041.78
2023-01-06T00:06:03.097Z,99048.09
2023-01-06T00:07:04.492Z,99045.72
2023-01-06T00:08:05.735Z,99042.03
2023-01-06T00:09:07.254Z,99039.66
2023-01-06T00:10:10.131Z,99032.22
2023-01-06T00:11:13.533Z,99040.38
2023-01-06T00:12:16.009Z,99035.59
2023-01-06T00:13:17.596Z,99039.81
2023-01-06T00:14:19.228Z,99041.38
2023-01-06T00:15:21.697Z,99037.94
2023-01-06T00:16:23.351Z,99034.53
2023-01-06T00:17:27.025Z,99033.66
2023-01-06T00:18:28.230Z,99042.09
2023-01-06T00:19:29.543Z,99041.84
2023-01-06T00:20:30.939Z,99032.53
2023-01-06T00:21:32.209Z,99035.97
2023-01-06T00:22:33.911Z,99032.28
2023-01-06T00:23:35.862Z,99033.31
2023-01-06T00:24:37.471Z,99027.75
2023-01-06T00:25:38.671Z,99025.91
2023-01-06T00:26:43.205Z,99026.69
2023-01-06T00:27:44.519Z,99024.53
2023-01-06T00:28:45.886Z,99027.47
2023-01-06T00:29:47.996Z,99018.72
2023-01-06T00:30:49.337Z,99024.81
2023-01-06T00:31:50.623Z,99017.38
2023-01-06T00:32:52.078Z,99022.41
2023-01-06T00:33:55.239Z,99016.56
2023-01-06T00:34:56.550Z,99019.97
2023-01-06T00:35:58.840Z,99009.38
2023-01-06T00:37:00.709Z,99008.56
2023-01-06T00:38:03.556Z,99006.72
2023-01-06T00:39:04.859Z,99007.78
2023-01-06T00:40:06.494Z,99000.44
2023-01-06T00:41:09.300Z,99002.22
2023-01-06T00:42:10.663Z,99005.66
2023-01-06T00:43:13.283Z,99002.16
2023-01-06T00:44:14.513Z,98997.88
2023-01-06T00:45:16.006Z,99006.63
2023-01-06T00:46:18.251Z,99000.03
2023-01-06T00:47:19.947Z,99000.28
2023-01-06T00:48:21.242Z,98999.50
2023-01-06T00:49:28.266Z,98995.53
2023-01-06T00:50:29.549Z,99000.84
2023-01-06T00:51:32.573Z,98996.13
2023-01-06T00:52:35.738Z,98995.06
2023-01-06T00:53:37.205Z,98998.50
2023-01-06T00:54:38.519Z,98997.72
2023-01-06T00:55:39.777Z,98998.78
2023-01-06T00:56:44.333Z,99001.69
2023-01-06T00:57:47.305Z,98999.63
2023-01-06T00:58:48.568Z,99001.22
2023-01-06T00:59:50.119Z,98998.03
2023-01-06T01:00:51.440Z,99000.97
2023-01-06T01:01:55.512Z,98998.88
2023-01-06T01:02:56.856Z,98993.09
2023-01-06T01:03:58.067Z,98995.75
2023-01-06T01:04:59.599Z,98995.75
2023-01-06T01:06:02.220Z,98999.47
2023-01-06T01:07:03.778Z,99002.38
2023-01-06T01:08:05.888Z,98997.38
2023-01-06T01:09:07.496Z,98994.25
2023-01-06T01:10:09.024Z,99004.84
2023-01-06T01:11:11.281Z,98996.38
2023-01-06T01:12:12.688Z,99003.53
2023-01-06T01:13:13.976Z,98998.53
2023-01-06T01:14:19.536Z,99005.16
2023-01-06T01:15:20.801Z,98993.00
2023-01-06T01:16:22.299Z,99003.59
2023-01-06T01:17:28.501Z,99000.94
2023-01-06T01:18:30.755Z,99003.53
2023-01-06T01:19:32.087Z,99009.91
2023-01-06T01:20:35.028Z,99002.75
2023-01-06T01:21:37.604Z,99008.03
2023-01-06T01:22:40.312Z,99000.09
2023-01-06T01:23:41.646Z,98996.66
2023-01-06T01:24:44.077Z,98998.22
2023-01-06T01:25:45.457Z,99003.47
2023-01-06T01:26:50.572Z,99002.91
2023-01-06T01:27:52.135Z,99010.56
2023-01-06T01:28:55.951Z,99007.91
2023-01-06T01:30:01.461Z,99004.72
2023-01-06T01:31:03.962Z,98998.34
2023-01-06T01:32:05.571Z,99000.97
2023-01-06T01:33:06.887Z,98995.38
2023-01-06T01:34:08.894Z,98988.22
2023-01-06T01:35:10.336Z,98996.63
2023-01-06T01:36:15.150Z,98992.13
2023-01-06T01:37:17.559Z,98993.41
2023-01-06T01:38:18.777Z,98988.06
2023-01-06T01:39:21.595Z,98993.88
2023-01-06T01:40:25.104Z,98990.13
2023-01-06T01:41:27.202Z,98991.72
2023-01-06T01:42:29.749Z,98995.97
2023-01-06T01:43:58.275Z,98992.44
2023-01-06T01:45:02.381Z,98985.78
2023-01-06T01:46:03.753Z,98986.84
2023-01-06T01:47:05.514Z,98983.13
2023-01-06T01:48:11.705Z,98985.00
2023-01-06T01:49:14.428Z,98983.66
2023-01-06T01:50:31.221Z,98985.78
2023-01-06T01:51:35.658Z,98982.03
2023-01-06T01:52:37.776Z,98977.81
2023-01-06T01:53:48.465Z,98973.09
2023-01-06T01:54:50.642Z,98976.56
2023-01-06T01:55:53.353Z,98976.03
2023-01-06T01:56:57.559Z,98980.84
2023-01-06T01:58:06.627Z,98987.72
2023-01-06T01:59:14.059Z,98986.94
2023-01-06T02:00:15.606Z,98985.34
2023-01-06T02:01:18.923Z,98988.00
2023-01-06T02:02:22.625Z,98984.84
2023-01-06T02:03:25.998Z,98986.22
2023-01-06T02:04:28.459Z,98983.84
2023-01-06T02:05:30.245Z,98985.22
2023-01-06T02:06:32.872Z,98987.03
2023-01-06T02:07:38.629Z,98984.91
2023-01-06T02:08:41.792Z,98986.00
2023-01-06T02:09:51.444Z,98980.69
2023-01-06T02:10:52.753Z,98981.75
2023-01-06T02:11:55.669Z,98983.59
2023-01-06T02:12:58.016Z,98978.31
2023-01-06T02:14:17.200Z,98980.16
2023-01-06T02:15:21.531Z,98978.88
2023-01-06T02:16:30.427Z,98979.91
2023-01-06T02:17:37.227Z,98980.69
2023-01-06T02:18:58.695Z,98972.44
2023-01-06T02:20:25.199Z,98980.69
2023-01-06T02:21:37.133Z,98980.97
2023-01-06T02:22:51.436Z,98976.66
2023-01-06T02:24:01.725Z,98974.03
2023-01-06T02:25:11.959Z,98970.88
2023-01-06T02:26:16.427Z,98979.91
2023-01-06T02:27:41.408Z,98973.53
2023-01-06T02:29:10.063Z,98966.94
2023-01-06T02:30:17.155Z,98963.19
2023-01-06T02:31:32.326Z,98973.00
2023-01-06T02:32:39.993Z,98974.06
2023-01-06T02:33:47.400Z,98971.38
2023-01-06T02:35:02.009Z,98971.88
2023-01-06T02:36:12.107Z,98967.94
2023-01-06T02:37:14.284Z,98966.06
2023-01-06T02:38:25.014Z,98958.13
2023-01-06T02:39:46.258Z,98959.44
2023-01-06T02:40:53.018Z,98966.03
2023-01-06T02:42:16.921Z,98969.66
2023-01-06T02:43:27.140Z,98965.66
2023-01-06T02:44:33.339Z,98970.44
2023-01-06T02:45:47.062Z,98962.50
2023-01-06T02:46:56.990Z,98955.84
2023-01-06T02:48:28.552Z,98967.78
2023-01-06T02:49:46.353Z,98969.38
2023-01-06T02:51:02.832Z,98961.69
2023-01-06T02:52:09.812Z,98967.31
2023-01-06T02:53:23.107Z,98970.66
2023-01-06T02:54:32.187Z,98961.44
2023-01-06T02:55:43.571Z,98967.78
2023-01-06T02:56:49.318Z,98952.19
2023-01-06T02:58:09.875Z,98963.56
2023-01-06T02:59:15.989Z,98959.06
2023-01-06T03:00:29.444Z,98964.34
2023-01-06T03:01:34.237Z,98959.84
2023-01-06T03:02:37.193Z,98960.91
2023-01-06T03:03:41.319Z,98958.28
2023-01-06T03:04:45.751Z,98964.09
2023-01-06T03:05:50.018Z,98964.88
2023-01-06T03:06:52.975Z,98963.78
2023-01-06T03:07:57.435Z,98956.63
2023-01-06T03:08:59.121Z,98950.53
2023-01-06T03:10:01.660Z,98946.03
2023-01-06T03:11:05.399Z,98941.81
2023-01-06T03:12:23.778Z,98940.72
2023-01-06T03:13:25.456Z,98940.16
2023-01-06T03:14:37.435Z,98933.28
2023-01-06T03:15:39.238Z,98937.00
2023-01-06T03:16:41.940Z,98941.50
2023-01-06T03:17:45.887Z,98947.91
2023-01-06T03:18:49.511Z,98956.63
2023-01-06T03:19:52.735Z,98946.03
2023-01-06T03:20:55.974Z,98949.19
2023-01-06T03:21:59.068Z,98938.28
2023-01-06T03:23:00.340Z,98948.59
2023-01-06T03:24:02.271Z,98947.03
2023-01-06T03:25:03.667Z,98959.50
2023-01-06T03:26:04.941Z,98952.91
2023-01-06T03:27:07.075Z,98951.31
2023-01-06T03:28:09.570Z,98947.41
2023-01-06T03:29:13.324Z,98949.53
2023-01-06T03:30:15.160Z,98949.06
2023-01-06T03:31:36.132Z,98944.03
2023-01-06T03:32:48.252Z,98940.41
2023-01-06T03:33:55.884Z,98945.97
2023-01-06T03:35:00.175Z,98938.78
2023-01-06T03:36:05.059Z,98949.38
2023-01-06T03:37:20.927Z,98940.66
2023-01-06T03:38:25.138Z,98941.44
2023-01-06T03:39:35.578Z,98937.22
2023-01-06T03:40:42.162Z,98934.56
2023-01-06T03:41:48.395Z,98933.78
2023-01-06T03:42:49.716Z,98931.41
2023-01-06T03:44:01.766Z,98946.53
2023-01-06T03:45:03.123Z,98938.56
2023-01-06T03:46:24.344Z,98936.97
2023-01-06T03:47:34.017Z,98937.28
2023-01-06T03:48:55.024Z,98940.69
2023-01-06T03:50:04.526Z,98942.88
2023-01-06T03:51:16.505Z,98929.63
2023-01-06T03:52:23.907Z,98937.03
2023-01-06T03:53:31.234Z,98930.47
2023-01-06T03:54:40.267Z,98937.63
2023-01-06T03:55:44.703Z,98946.38
2023-01-06T03:56:48.920Z,98937.91
2023-01-06T03:57:52.146Z,98945.06
2023-01-06T03:58:56.524Z,98949.56
2023-01-06T04:00:10.405Z,98943.50
2023-01-06T04:01:15.280Z,98948.50
2023-01-06T04:02:19.300Z,98948.50
2023-01-06T04:03:23.315Z,98942.41
2023-01-06T04:04:25.027Z,98952.81
2023-01-06T04:05:27.985Z,98942.50
2023-01-06T04:06:30.731Z,98946.22
2023-01-06T04:07:33.287Z,98949.38
2023-01-06T04:08:34.751Z,98948.06
2023-01-06T04:09:37.502Z,98958.19
2023-01-06T04:10:39.835Z,98951.28
2023-01-06T04:11:42.000Z,98952.66
2023-01-06T04:12:44.276Z,98962.47
2023-01-06T04:13:49.171Z,98959.28
2023-01-06T04:14:50.693Z,98964.09
2023-01-06T04:15:53.210Z,98964.59
2023-01-06T04:16:54.699Z,98964.09
2023-01-06T04:17:56.802Z,98957.50
2023-01-06T04:18:59.094Z,98959.38
2023-01-06T04:20:00.979Z,98955.94
2023-01-06T04:21:02.228Z,98955.94
2023-01-06T04:22:04.075Z,98960.44
2023-01-06T04:23:06.072Z,98958.88
2023-01-06T04:24:11.312Z,98964.41
2023-01-06T04:25:12.556Z,98956.16
2023-01-06T04:26:15.005Z,98956.66
2023-01-06T04:27:22.208Z,98958.50
2023-01-06T04:28:23.479Z,98955.09
2023-01-06T04:29:26.702Z,98949.78
2023-01-06T04:30:29.779Z,98952.13
2023-01-06T04:31:31.466Z,98964.31
2023-01-06T04:32:34.130Z,98954.47
2023-01-06T04:33:38.708Z,98953.66
2023-01-06T04:34:46.763Z,98950.44
2023-01-06T04:35:48.208Z,98951.97
2023-01-06T04:36:53.935Z,98946.06
2023-01-06T04:37:59.587Z,98942.94
2023-01-06T04:39:00.832Z,98936.06
2023-01-06T04:40:03.096Z,98936.84
2023-01-06T04:41:04.608Z,98940.56
2023-01-06T04:42:07.549Z,98936.34
2023-01-06T04:43:09.380Z,98939.28
2023-01-06T04:44:10.761Z,98943.78
2023-01-06T04:45:12.013Z,98936.94
2023-01-06T04:46:13.431Z,98934.28
2023-01-06T04:47:15.151Z,98944.09
2023-01-06T04:48:19.405Z,98939.84
2023-01-06T04:49:23.204Z,98932.19
2023-01-06T04:50:24.492Z,98933.75
2023-01-06T04:51:25.739Z,98926.88
2023-01-06T04:52:32.331Z,98930.63
2023-01-06T04:53:34.735Z,98930.09
2023-01-06T04:54:36.856Z,98927.19
2023-01-06T04:55:39.044Z,98927.44
2023-01-06T04:56:41.453Z,98930.09
2023-01-06T04:57:42.771Z,98933.81
2023-01-06T04:58:44.159Z,98925.88
2023-01-06T04:59:46.687Z,98929.31
2023-01-06T05:00:48.200Z,98919.50
2023-01-06T05:01:49.564Z,98919.50
2023-01-06T05:02:51.179Z,98918.72
2023-01-06T05:03:53.920Z,98927.75
2023-01-06T05:04:56.255Z,98916.06
2023-01-06T05:06:01.703Z,98916.06
2023-01-06T05:07:05.287Z,98918.47
2023-01-06T05:08:06.563Z,98910.22
2023-01-06T05:09:07.884Z,98917.09
2023-01-06T05:10:09.953Z,98909.13
2023-01-06T05:11:15.787Z,98913.94
2023-01-06T05:12:17.979Z,98915.50
2023-01-06T05:13:19.236Z,98915.50
2023-01-06T05:14:21.565Z,98918.94
2023-01-06T05:15:23.010Z,98920.03
2023-01-06T05:16:25.748Z,98913.16
2023-01-06T05:17:27.536Z,98916.06
2023-01-06T05:18:28.769Z,98913.44
2023-01-06T05:19:30.178Z,98908.91
2023-01-06T05:20:31.657Z,98910.00
2023-01-06T05:21:33.174Z,98911.84
2023-01-06T05:22:34.434Z,98911.06
2023-01-06T05:23:39.283Z,98911.06
2023-01-06T05:24:40.672Z,98915.59
2023-01-06T05:25:41.990Z,98912.16
2023-01-06T05:26:43.642Z,98911.06
2023-01-06T05:27:45.411Z,98904.22
2023-01-06T05:28:47.201Z,98908.44
2023-01-06T05:29:48.496Z,98910.28
2023-01-06T05:30:49.798Z,98913.72
2023-01-06T05:31:51.120Z,98903.13
2023-01-06T05:32:54.368Z,98915.59
2023-01-06T05:33:55.677Z,98915.59
2023-01-06T05:34:57.150Z,98914.50
2023-01-06T05:35:59.141Z,98911.06
2023-01-06T05:37:00.425Z,98907.34
2023-01-06T05:38:01.911Z,98903.13
2023-01-06T05:39:03.337Z,98909.22
2023-01-06T05:40:04.858Z,98908.44
2023-01-06T05:41:06.680Z,98908.72
2023-01-06T05:42:10.072Z,98906.84
2023-01-06T05:43:11.322Z,98910.59
2023-01-06T05:44:12.605Z,98911.38
2023-01-06T05:45:13.926Z,98910.28
2023-01-06T05:46:15.357Z,98905.78
2023-01-06T05:47:16.698Z,98898.31
2023-01-06T05:48:18.366Z,98897.28
2023-01-06T05:49:19.670Z,98904.91
2023-01-06T05:50:20.875Z,98901.50
2023-01-06T05:51:25.071Z,98901.50
2023-01-06T05:52:26.498Z,98907.28
2023-01-06T05:53:32.268Z,98904.63
2023-01-06T05:54:33.754Z,98895.91
2023-01-06T05:55:35.165Z,98905.16
2023-01-06T05:56:36.757Z,98894.31
2023-01-06T05:57:38.048Z,98907.06
2023-01-06T05:58:41.043Z,98911.84
2023-01-06T05:59:44.441Z,98914.50
2023-01-06T06:00:46.008Z,98909.22
2023-01-06T06:01:47.414Z,98913.44
2023-01-06T06:02:49.005Z,98900.00
2023-01-06T06:03:50.996Z,98913.50
2023-01-06T06:04:53.436Z,98900.56
2023-01-06T06:05:54.799Z,98901.91
2023-01-06T06:06:58.758Z,98908.28
2023-01-06T06:07:59.983Z,98907.50
2023-01-06T06:09:01.479Z,98909.91
2023-01-06T06:10:03.424Z,98917.38
2023-01-06T06:11:05.909Z,98913.41
2023-01-06T06:12:07.479Z,98913.41
2023-01-06T06:13:09.124Z,98913.16
2023-01-06T06:14:10.556Z,98916.66
2023-01-06T06:15:11.969Z,98917.72
2023-01-06T06:16:14.247Z,98904.97
2023-01-06T06:17:16.594Z,98905.75
2023-01-06T06:18:17.944Z,98907.63
2023-01-06T06:19:19.458Z,98911.34
2023-01-06T06:20:20.734Z,98908.19
2023-01-06T06:21:23.403Z,98911.13
2023-01-06T06:22:24.652Z,98913.00
2023-01-06T06:23:26.195Z,98917.50
2023-01-06T06:24:27.460Z,98919.91
2023-01-06T06:25:28.810Z,98923.34
2023-01-06T06:26:30.201Z,98925.72
2023-01-06T06:27:31.475Z,98930.72
2023-01-06T06:28:33.763Z,98925.44
2023-01-06T06:29:35.032Z,98929.16
2023-01-06T06:30:37.562Z,98932.84
2023-01-06T06:31:39.081Z,98934.72
2023-01-06T06:32:41.669Z,98933.16
2023-01-06T06:33:43.535Z,98932.06
2023-01-06T06:34:44.781Z,98938.44
2023-01-06T06:35:55.917Z,98943.75
2023-01-06T06:36:57.149Z,98942.16
2023-01-06T06:37:58.371Z,98947.47
2023-01-06T06:39:00.357Z,98944.81
2023-01-06T06:40:02.647Z,98939.53
2023-01-06T06:41:04.211Z,98926.84
2023-01-06T06:42:05.669Z,98926.34
2023-01-06T06:43:06.907Z,98931.94
2023-01-06T06:44:08.388Z,98928.47
2023-01-06T06:45:09.992Z,98926.66
2023-01-06T06:46:12.395Z,98934.28
2023-01-06T06:47:13.666Z,98929.00
2023-01-06T06:48:15.549Z,98928.47
2023-01-06T06:49:16.839Z,98936.72
2023-01-06T06:50:18.413Z,98939.66
2023-01-06T06:51:21.094Z,98943.88
2023-01-06T06:52:22.620Z,98939.34
2023-01-06T06:53:26.152Z,98938.56
2023-01-06T06:54:27.555Z,98944.94
2023-01-06T06:55:29.023Z,98942.78
2023-01-06T06:56:30.303Z,98943.56
2023-01-06T06:57:32.592Z,98939.06
2023-01-06T06:58:36.924Z,98948.06
2023-01-06T06:59:38.195Z,98950.72
2023-01-06T07:00:39.600Z,98956.81
2023-01-06T07:01:40.994Z,98949.66
2023-01-06T07:02:42.318Z,98957.09
2023-01-06T07:03:43.834Z,98952.88
2023-01-06T07:04:45.474Z,98954.44
2023-01-06T07:05:48.124Z,98960.03
2023-01-06T07:06:49.379Z,98954.75
2023-01-06T07:07:50.640Z,98955.78
2023-01-06T07:08:52.034Z,98961.91
2023-01-06T07:09:53.271Z,98966.38
2023-01-06T07:10:54.859Z,98968.22
2023-01-06T07:11:56.037Z,98969.84
2023-01-06T07:12:57.263Z,98975.13
2023-01-06T07:13:58.670Z,98977.78
2023-01-06T07:15:00.052Z,98983.06
2023-01-06T07:16:01.357Z,98982.53
2023-01-06T07:17:02.754Z,98989.69
2023-01-06T07:18:04.757Z,98985.47
2023-01-06T07:19:07.958Z,98985.19
2023-01-06T07:20:10.739Z,98985.19
2023-01-06T07:21:13.172Z,98982.00
2023-01-06T07:22:14.559Z,98984.63
2023-01-06T07:23:16.528Z,98988.84
2023-01-06T07:24:17.791Z,98988.06
2023-01-06T07:25:19.248Z,98981.69
2023-01-06T07:26:20.658Z,98982.00
2023-01-06T07:27:21.861Z,98989.63
2023-01-06T07:28:23.249Z,98986.50
2023-01-06T07:29:24.475Z,98989.94
2023-01-06T07:30:26.619Z,98984.13
2023-01-06T07:31:28.083Z,98986.50
2023-01-06T07:32:29.410Z,98987.28
2023-01-06T07:33:30.791Z,98985.13
2023-01-06T07:34:32.187Z,98992.81
2023-01-06T07:35:33.408Z,98992.53
2023-01-06T07:36:34.727Z,98992.00
2023-01-06T07:37:38.396Z,98997.28
2023-01-06T07:38:40.820Z,99001.53
2023-01-06T07:39:42.193Z,99004.19
2023-01-06T07:40:43.588Z,98999.69
2023-01-06T07:41:44.878Z,99003.88
2023-01-06T07:42:46.501Z,99005.47
2023-01-06T07:43:47.739Z,99001.47
2023-01-06T07:44:49.071Z,99008.34
2023-01-06T07:45:50.481Z,99006.06
2023-01-06T07:46:51.766Z,99012.19
2023-01-06T07:47:55.531Z,99007.16
2023-01-06T07:48:58.828Z,99011.09
2023-01-06T07:50:00.163Z,99012.19
2023-01-06T07:51:01.486Z,99024.84
2023-01-06T07:52:04.276Z,99020.13
2023-01-06T07:53:05.764Z,99020.97
2023-01-06T07:54:07.309Z,99026.75
2023-01-06T07:55:08.612Z,99017.00
2023-01-06T07:56:11.501Z,99018.88
2023-01-06T07:57:12.818Z,99034.75
2023-01-06T07:58:14.274Z,99024.16
2023-01-06T07:59:15.560Z,99028.16
2023-01-06T08:00:17.028Z,99031.88
2023-01-06T08:01:18.522Z,99037.00
2023-01-06T08:02:20.080Z,99025.13
2023-01-06T08:03:21.601Z,99030.34
2023-01-06T08:04:23.258Z,99025.34
2023-01-06T08:05:24.548Z,99030.34
2023-01-06T08:06:26.079Z,99031.97
2023-01-06T08:07:27.992Z,99022.53
2023-01-06T08:08:29.987Z,99028.66
2023-01-06T08:09:32.476Z,99021.50
2023-01-06T08:10:34.132Z,99016.22
2023-01-06T08:11:37.412Z,99030.22
2023-01-06T08:12:38.776Z,99024.16
2023-01-06T08:13:40.240Z,99017.53
2023-01-06T08:14:41.622Z,99019.09
2023-01-06T08:15:42.971Z,99016.44
2023-01-06T08:16:44.840Z,99019.09
2023-01-06T08:17:46.160Z,99014.28
2023-01-06T08:18:47.735Z,99011.66
2023-01-06T08:19:49.360Z,99014.53
2023-01-06T08:20:50.626Z,99022.19
2023-01-06T08:21:51.849Z,99023.25
2023-01-06T08:22:53.200Z,99021.41
2023-01-06T08:23:54.656Z,99029.03
2023-01-06T08:24:55.850Z,99027.72
2023-01-06T08:26:04.473Z,99022.41
2023-01-06T08:27:06.061Z,99027.41
2023-01-06T08:28:08.375Z,99016.28
2023-01-06T08:29:09.922Z,99023.69
2023-01-06T08:30:11.645Z,99022.91
2023-01-06T08:31:14.354Z,99021.28
2023-01-06T08:32:19.187Z,99023.16
2023-01-06T08:33:20.448Z,99022.06
2023-01-06T08:34:21.792Z,99022.84
2023-01-06T08:35:23.217Z,99024.66
2023-01-06T08:36:24.841Z,99026.81
2023-01-06T08:37:26.172Z,99024.66
2023-01-06T08:38:28.104Z,99021.53
2023-01-06T08:39:29.482Z,99019.38
2023-01-06T08:40:31.016Z,99028.38
2023-01-06T08:41:33.254Z,99023.88
2023-01-06T08:42:34.689Z,99021.53
2023-01-06T08:43:36.567Z,99027.59
2023-01-06T08:44:39.027Z,99033.13
2023-01-06T08:45:40.621Z,99036.03
2023-01-06T08:46:45.129Z,99029.16
2023-01-06T08:47:46.552Z,99025.44
2023-01-06T08:48:48.163Z,99022.81
2023-01-06T08:49:49.519Z,99026.25
2023-01-06T08:50:51.094Z,99022.81
2023-01-06T08:51:54.309Z,99033.34
2023-01-06T08:52:55.573Z,99025.78
2023-01-06T08:53:57.393Z,99026.56
2023-01-06T08:54:59.544Z,99026.28
2023-01-06T08:56:00.937Z,99031.31
2023-01-06T08:57:02.174Z,99024.44
2023-01-06T08:58:03.437Z,99019.94
2023-01-06T08:59:04.805Z,99026.75
2023-01-06T09:00:06.767Z,99032.34
2023-01-06T09:01:15.193Z,99028.59
2023-01-06T09:02:17.064Z,99031.75
2023-01-06T09:03:18.757Z,99026.91
2023-01-06T09:04:20.349Z,99035.63
2023-01-06T09:05:21.724Z,99035.91
2023-01-06T09:06:23.014Z,99032.22
2023-01-06T09:07:24.560Z,99029.25
2023-01-06T09:08:25.827Z,99030.28
2023-01-06T09:09:27.130Z,99030.19
2023-01-06T09:10:28.604Z,99029.88
2023-01-06T09:11:29.951Z,99023.72
2023-01-06T09:12:31.451Z,99025.59
2023-01-06T09:13:32.915Z,99027.16
2023-01-06T09:14:34.227Z,99028.25
2023-01-06T09:15:39.226Z,99023.72
2023-01-06T09:16:40.847Z,99026.53
2023-01-06T09:17:42.104Z,99020.66
2023-01-06T09:18:43.383Z,99026.25
2023-01-06T09:19:44.779Z,99032.25
2023-01-06T09:20:47.018Z,99029.34
2023-01-06T09:21:48.319Z,99036.34
2023-01-06T09:22:49.525Z,99036.53
2023-01-06T09:23:51.327Z,99039.19
2023-01-06T09:24:52.667Z,99043.94
2023-01-06T09:25:57.746Z,99045.50
2023-01-06T09:26:59.000Z,99046.09
2023-01-06T09:28:00.225Z,99045.81
2023-01-06T09:29:04.519Z,99044.72
2023-01-06T09:30:06.279Z,99048.44
2023-01-06T09:31:09.470Z,99053.19
2023-01-06T09:32:10.936Z,99047.88
2023-01-06T09:33:12.203Z,99057.41
2023-01-06T09:34:13.497Z,99056.34
2023-01-06T09:35:14.813Z,99056.34
2023-01-06T09:36:16.072Z,99065.50
2023-01-06T09:37:19.212Z,99054.63
2023-01-06T09:38:20.716Z,99064.44
2023-01-06T09:39:21.954Z,99061.50
2023-01-06T09:40:27.862Z,99060.63
2023-01-06T09:41:29.219Z,99058.19
2023-01-06T09:42:56.619Z,99059.19
2023-01-06T09:44:12.934Z,99063.91
2023-01-06T09:45:21.770Z,99055.09
2023-01-06T09:46:33.461Z,99059.53
2023-01-06T09:47:40.631Z,99063.09
2023-01-06T09:48:51.659Z,99062.22
2023-01-06T09:50:00.041Z,99064.31
2023-01-06T09:51:03.242Z,99066.38
2023-01-06T09:52:07.347Z,99068.22
2023-01-06T09:53:15.001Z,99070.88
2023-01-06T09:54:19.358Z,99070.31
2023-01-06T09:55:30.715Z,99061.56
2023-01-06T09:56:34.907Z,99065.28
2023-01-06T09:57:38.838Z,99062.34
2023-01-06T09:58:44.869Z,99064.91
2023-01-06T09:59:55.272Z,99064.72
2023-01-06T10:00:57.399Z,99060.75
2023-01-06T10:02:03.771Z,99059.69
2023-01-06T10:03:05.839Z,99060.75
2023-01-06T10:04:17.124Z,99055.31
2023-01-06T10:05:20.069Z,99052.53
2023-01-06T10:06:30.965Z,99050.66
2023-01-06T10:07:49.946Z,99052.00
2023-01-06T10:08:57.393Z,99043.25
2023-01-06T10:10:01.604Z,99054.66
2023-01-06T10:11:05.653Z,99036.38
2023-01-06T10:12:26.332Z,99039.34
2023-01-06T10:13:53.746Z,99030.28
2023-01-06T10:15:09.369Z,99038.56
2023-01-06T10:16:23.947Z,99034.72
2023-01-06T10:17:37.234Z,99035.22
2023-01-06T10:18:56.642Z,99028.63
2023-01-06T10:19:58.083Z,99020.88
2023-01-06T10:21:16.461Z,99024.81
2023-01-06T10:22:28.608Z,99021.75
2023-01-06T10:23:30.789Z,99027.28
2023-01-06T10:24:51.371Z,99023.53
2023-01-06T10:26:01.457Z,99017.19
2023-01-06T10:27:15.127Z,99010.28
2023-01-06T10:28:28.119Z,99011.88
2023-01-06T10:29:31.996Z,99010.47
2023-01-06T10:30:43.824Z,99014.44
2023-01-06T10:31:46.764Z,99011.25
2023-01-06T10:32:49.649Z,99013.66
2023-01-06T10:33:52.540Z,99010.59
2023-01-06T10:34:54.367Z,99016.19
2023-01-06T10:35:56.382Z,99010.91
2023-01-06T10:37:12.822Z,99011.06
2023-01-06T10:38:14.941Z,99006.28
2023-01-06T10:39:19.783Z,99002.22
2023-01-06T10:40:25.682Z,99003.63
2023-01-06T10:41:45.647Z,99007.34
2023-01-06T10:42:51.918Z,99008.72
2023-01-06T10:43:55.237Z,99002.31
2023-01-06T10:44:56.505Z,99008.34
2023-01-06T10:45:57.783Z,99005.94
2023-01-06T10:46:59.977Z,99007.25
2023-01-06T10:48:02.147Z,99006.38
2023-01-06T10:49:04.192Z,99012.25
2023-01-06T10:50:05.773Z,99012.16
2023-01-06T10:51:25.958Z,99009.03
2023-01-06T10:52:31.510Z,99008.25
2023-01-06T10:53:32.813Z,99008.41
2023-01-06T10:54:34.221Z,99007.63
2023-01-06T10:55:38.558Z,99003.31
2023-01-06T10:56:43.574Z,99003.31
2023-01-06T10:57:48.174Z,99001.34
2023-01-06T10:58:49.369Z,99009.09
2023-01-06T11:00:09.950Z,99012.66
2023-01-06T11:01:12.896Z,99008.13
2023-01-06T11:02:21.998Z,99008.22
2023-01-06T11:03:39.138Z,99007.53
2023-01-06T11:04:52.621Z,99011.47
2023-01-06T11:06:06.483Z,99000.06
2023-01-06T11:07:14.203Z,99010.97
2023-01-06T11:08:15.873Z,99006.75
2023-01-06T11:09:25.138Z,99006.44
2023-01-06T11:10:31.353Z,99005.09
2023-01-06T11:11:33.215Z,99006.97
2023-01-06T11:12:34.821Z,99004.31
2023-01-06T11:13:36.915Z,99003.78
2023-01-06T11:14:39.227Z,99001.34
2023-01-06T11:15:41.367Z,98997.69
2023-01-06T11:16:43.778Z,99003.00
2023-01-06T11:17:45.650Z,98997.22
2023-01-06T11:18:50.996Z,98999.56
2023-01-06T11:20:13.444Z,98997.91
2023-01-06T11:21:14.992Z,98992.28
2023-01-06T11:22:36.539Z,98992.19
2023-01-06T11:23:41.118Z,98986.78
2023-01-06T11:24:51.743Z,98993.56
2023-01-06T11:26:06.895Z,98982.53
2023-01-06T11:27:15.338Z,98985.69
2023-01-06T11:28:18.364Z,98992.75
2023-01-06T11:29:24.862Z,98975.44
2023-01-06T11:30:27.549Z,98980.19
2023-01-06T11:31:28.821Z,98979.00
2023-01-06T11:32:30.199Z,98979.31
2023-01-06T11:33:32.882Z,98980.25
2023-01-06T11:34:34.553Z,98979.22
2023-01-06T11:35:35.917Z,98976.44
2023-01-06T11:36:43.547Z,98982.22
2023-01-06T11:37:45.055Z,98980.84
2023-01-06T11:38:47.726Z,98973.94
2023-01-06T11:39:52.120Z,98985.66
2023-01-06T11:41:07.889Z,98984.19
2023-01-06T11:42:12.352Z,98983.41
2023-01-06T11:43:30.599Z,98987.13
2023-01-06T11:44:36.979Z,98989.78
2023-01-06T11:45:47.430Z,98985.44
2023-01-06T11:46:50.350Z,98986.41
2023-01-06T11:47:51.694Z,98986.72
2023-01-06T11:48:58.926Z,98993.50
2023-01-06T11:50:01.243Z,98992.13
2023-01-06T11:51:03.983Z,98988.06
2023-01-06T11:52:06.504Z,98983.84
2023-01-06T11:53:19.489Z,98992.13
2023-01-06T11:54:32.731Z,98990.72
2023-01-06T11:55:34.436Z,98984.97
2023-01-06T11:56:35.963Z,98981.81
2023-01-06T11:57:54.188Z,98987.63
2023-01-06T11:58:55.473Z,98969.81
2023-01-06T12:00:05.691Z,98973.84
2023-01-06T12:01:19.517Z,98982.00
2023-01-06T12:02:25.092Z,98975.44
2023-01-06T12:03:36.544Z,98978.09
2023-01-06T12:04:53.321Z,98970.69
2023-01-06T12:06:13.605Z,98966.16
2023-01-06T12:07:23.758Z,98968.91
2023-01-06T12:08:43.779Z,98964.50
2023-01-06T12:09:47.121Z,98966.28
2023-01-06T12:10:52.571Z,98967.69
2023-01-06T12:11:55.088Z,98958.84
2023-01-06T12:12:56.469Z,98964.63
2023-01-06T12:14:13.091Z,98965.72
2023-01-06T12:15:18.268Z,98963.06
2023-01-06T12:16:22.939Z,98966.81
2023-01-06T12:17:50.188Z,98967.59
2023-01-06T12:18:51.396Z,98960.19
2023-01-06T12:19:58.923Z,98968.38
2023-01-06T12:21:01.295Z,98970.25
2023-01-06T12:22:03.260Z,98969.47
2023-01-06T12:23:12.142Z,98973.00
2023-01-06T12:24:18.343Z,98960.72
2023-01-06T12:25:23.155Z,98964.44
2023-01-06T12:26:25.109Z,98959.50
2023-01-06T12:27:30.432Z,98960.41
2023-01-06T12:28:41.940Z,98958.22
2023-01-06T12:29:49.346Z,98957.44
2023-01-06T12:31:02.989Z,98944.16
2023-01-06T12:32:16.254Z,98952.91
2023-01-06T12:33:22.383Z,98953.09
2023-01-06T12:34:27.262Z,98947.38
2023-01-06T12:35:31.933Z,98948.97
2023-01-06T12:36:37.542Z,98939.13